Terminal Aerodrome Forecast
Issued by NWS New Orleans/Baton Rouge, LA

Home | Current Version | Previous Version | Text Only | Print | Product List | Glossary On
Versions: 1 2 3 4 5 6 7 8 9 10 11 12 13 14
000
FTUS44 KLIX 301804 AAA
TAFBTR
TAF AMD
KBTR 301804Z 3018/3118 07004KT P6SM VCSH BKN050 BKN060
     FM302000 21007KT P6SM VCTS SCT040CB SCT250
     FM310000 19005KT P6SM SCT250
     FM310700 00000KT P6SM SCT250=

USA.gov is the U.S. government's official web portal to all federal, state and local government web resources and services.